createdAt,value
2023-02-20T00:01:01.542Z,11.30
2023-02-20T00:03:28.547Z,11.30
2023-02-20T00:05:55.299Z,11.60
2023-02-20T00:08:23.375Z,11.00
2023-02-20T00:10:50.293Z,11.40
2023-02-20T00:13:17.053Z,11.60
2023-02-20T00:15:43.866Z,11.20
2023-02-20T00:18:11.334Z,10.80
2023-02-20T00:20:38.127Z,11.20
2023-02-20T00:23:04.902Z,11.10
2023-02-20T00:25:31.722Z,10.60
2023-02-20T00:27:58.524Z,10.90
2023-02-20T00:30:25.772Z,11.30
2023-02-20T00:32:55.112Z,11.40
2023-02-20T00:35:22.749Z,11.40
2023-02-20T00:37:51.529Z,11.50
2023-02-20T00:40:20.683Z,11.10
2023-02-20T00:42:47.478Z,11.30
2023-02-20T00:45:17.270Z,11.50
2023-02-20T00:47:44.361Z,11.50
2023-02-20T00:50:16.280Z,11.60
2023-02-20T00:52:43.131Z,11.60
2023-02-20T00:55:10.465Z,11.60
2023-02-20T00:57:37.271Z,11.60
2023-02-20T01:00:08.916Z,11.50
2023-02-20T01:02:35.751Z,11.40
2023-02-20T01:05:02.604Z,11.10
2023-02-20T01:07:29.556Z,11.30
2023-02-20T01:09:56.370Z,11.20
2023-02-20T01:12:23.132Z,11.10
2023-02-20T01:14:49.877Z,10.90
2023-02-20T01:17:16.674Z,11.00
2023-02-20T01:19:44.712Z,10.90
2023-02-20T01:22:11.780Z,10.70
2023-02-20T01:24:38.606Z,10.60
2023-02-20T01:27:05.388Z,10.10
2023-02-20T01:29:32.134Z,10.20
2023-02-20T01:31:59.021Z,10.20
2023-02-20T01:34:25.865Z,10.30
2023-02-20T01:36:55.475Z,10.50
2023-02-20T01:39:30.932Z,10.40
2023-02-20T01:42:04.036Z,10.60
2023-02-20T01:44:36.041Z,10.60
2023-02-20T01:47:08.463Z,10.70
2023-02-20T01:49:42.020Z,10.80
2023-02-20T01:52:27.160Z,10.80
2023-02-20T01:55:11.760Z,10.50
2023-02-20T01:57:43.438Z,10.70
2023-02-20T02:00:16.175Z,10.90
2023-02-20T02:02:55.514Z,10.80
2023-02-20T02:05:23.483Z,10.90
2023-02-20T02:07:50.739Z,11.00
2023-02-20T02:10:25.950Z,10.80
2023-02-20T02:12:54.564Z,10.90
2023-02-20T02:15:23.502Z,10.80
2023-02-20T02:18:20.571Z,10.80
2023-02-20T02:21:31.576Z,10.60
2023-02-20T02:24:22.747Z,10.90
2023-02-20T02:27:44.608Z,10.70
2023-02-20T02:30:11.264Z,10.70
2023-02-20T02:33:04.915Z,10.70
2023-02-20T02:36:11.096Z,10.60
2023-02-20T02:38:45.802Z,10.70
2023-02-20T02:41:28.426Z,10.70
2023-02-20T02:44:11.356Z,10.70
2023-02-20T02:46:50.228Z,10.70
2023-02-20T02:49:44.914Z,10.70
2023-02-20T02:52:12.794Z,10.80
2023-02-20T02:54:40.225Z,10.80
2023-02-20T02:57:36.420Z,10.80
2023-02-20T03:00:10.662Z,10.80
2023-02-20T03:02:56.245Z,10.80
2023-02-20T03:05:39.968Z,10.80
2023-02-20T03:08:33.948Z,10.80
2023-02-20T03:11:09.470Z,10.80
2023-02-20T03:14:12.022Z,10.70
2023-02-20T03:17:14.330Z,10.70
2023-02-20T03:19:48.818Z,10.60
2023-02-20T03:22:32.160Z,10.60
2023-02-20T03:25:15.257Z,10.70
2023-02-20T03:27:58.428Z,10.50
2023-02-20T03:30:38.011Z,10.60
2023-02-20T03:33:47.229Z,10.70
2023-02-20T03:36:40.956Z,10.70
2023-02-20T03:39:36.689Z,10.70
2023-02-20T03:42:25.454Z,10.60
2023-02-20T03:44:53.059Z,10.60
2023-02-20T03:47:22.451Z,10.50
2023-02-20T03:49:51.448Z,10.50
2023-02-20T03:52:18.625Z,10.60
2023-02-20T03:54:45.778Z,10.50
2023-02-20T03:57:15.590Z,10.60
2023-02-20T03:59:53.117Z,10.30
2023-02-20T04:02:34.804Z,10.50
2023-02-20T04:05:07.173Z,10.60
2023-02-20T04:07:44.854Z,10.50
2023-02-20T04:10:19.258Z,10.50
2023-02-20T04:12:48.194Z,10.50
2023-02-20T04:15:15.937Z,10.30
2023-02-20T04:17:52.465Z,10.40
2023-02-20T04:20:19.342Z,10.50
2023-02-20T04:22:49.410Z,10.40
2023-02-20T04:25:43.649Z,10.50
2023-02-20T04:28:11.736Z,10.40
2023-02-20T04:30:38.660Z,10.30
2023-02-20T04:33:05.606Z,10.30
2023-02-20T04:35:32.433Z,10.20
2023-02-20T04:37:59.230Z,10.30
2023-02-20T04:40:26.064Z,10.40
2023-02-20T04:42:52.879Z,10.40
2023-02-20T04:45:19.617Z,10.40
2023-02-20T04:47:46.997Z,10.50
2023-02-20T04:50:25.450Z,10.50
2023-02-20T04:52:52.564Z,10.30
2023-02-20T04:55:20.427Z,10.20
2023-02-20T04:57:48.435Z,10.20
2023-02-20T05:00:18.260Z,10.30
2023-02-20T05:02:45.233Z,10.30
2023-02-20T05:05:21.457Z,10.50
2023-02-20T05:07:54.630Z,10.50
2023-02-20T05:10:23.781Z,10.50
2023-02-20T05:12:50.607Z,10.60
2023-02-20T05:15:17.503Z,10.60
2023-02-20T05:17:44.420Z,10.30
2023-02-20T05:20:12.701Z,10.00
2023-02-20T05:22:39.596Z,9.70
2023-02-20T05:25:06.929Z,9.50
2023-02-20T05:27:33.862Z,9.70
2023-02-20T05:30:01.751Z,9.80
2023-02-20T05:32:30.797Z,9.90
2023-02-20T05:34:58.677Z,9.80
2023-02-20T05:37:27.576Z,9.90
2023-02-20T05:39:54.426Z,9.90
2023-02-20T05:42:24.369Z,9.90
2023-02-20T05:44:51.173Z,9.70
2023-02-20T05:47:18.022Z,9.70
2023-02-20T05:49:44.771Z,9.80
2023-02-20T05:52:12.984Z,9.90
2023-02-20T05:54:41.565Z,10.00
2023-02-20T05:57:11.429Z,9.80
2023-02-20T05:59:38.208Z,10.10
2023-02-20T06:02:05.332Z,10.10
2023-02-20T06:04:32.117Z,10.10
2023-02-20T06:06:58.949Z,10.00
2023-02-20T06:09:25.764Z,9.90
2023-02-20T06:11:55.640Z,9.80
2023-02-20T06:14:25.266Z,9.90
2023-02-20T06:16:52.108Z,9.90
2023-02-20T06:19:24.436Z,10.00
2023-02-20T06:21:53.599Z,10.10
2023-02-20T06:24:21.557Z,10.10
2023-02-20T06:26:48.425Z,10.20
2023-02-20T06:29:16.744Z,10.30
2023-02-20T06:31:43.987Z,10.30
2023-02-20T06:34:11.705Z,10.10
2023-02-20T06:36:40.627Z,10.10
2023-02-20T06:39:09.969Z,10.20
2023-02-20T06:41:36.871Z,10.10
2023-02-20T06:44:03.998Z,10.20
2023-02-20T06:46:30.780Z,10.00
2023-02-20T06:48:59.332Z,10.20
2023-02-20T06:51:33.649Z,10.30
2023-02-20T06:54:01.836Z,10.30
2023-02-20T06:56:32.438Z,10.20
2023-02-20T06:59:00.743Z,10.20
2023-02-20T07:01:30.952Z,10.50
2023-02-20T07:04:00.502Z,10.50
2023-02-20T07:06:28.339Z,10.60
2023-02-20T07:08:55.136Z,10.60
2023-02-20T07:11:23.613Z,10.50
2023-02-20T07:13:51.099Z,10.60
2023-02-20T07:16:18.152Z,10.70
2023-02-20T07:18:45.002Z,10.90
2023-02-20T07:21:11.912Z,10.80
2023-02-20T07:23:38.690Z,10.90
2023-02-20T07:26:05.613Z,10.90
2023-02-20T07:28:36.241Z,11.00
2023-02-20T07:31:03.094Z,11.00
2023-02-20T07:33:29.966Z,10.00
2023-02-20T07:35:56.742Z,10.50
2023-02-20T07:38:23.491Z,10.50
2023-02-20T07:40:50.255Z,10.70
2023-02-20T07:43:16.997Z,10.80
2023-02-20T07:45:43.754Z,10.70
2023-02-20T07:48:10.554Z,10.90
2023-02-20T07:50:37.319Z,10.30
2023-02-20T07:53:04.161Z,10.80
2023-02-20T07:55:30.973Z,11.00
2023-02-20T07:57:58.445Z,11.10
2023-02-20T08:00:27.383Z,11.30
2023-02-20T08:02:54.335Z,11.50
2023-02-20T08:05:21.621Z,12.20
2023-02-20T08:07:50.267Z,12.50
2023-02-20T08:10:21.589Z,12.10
2023-02-20T08:12:48.890Z,11.70
2023-02-20T08:15:20.393Z,11.90
2023-02-20T08:17:47.663Z,11.50
2023-02-20T08:20:19.609Z,11.10
2023-02-20T08:22:47.760Z,11.00
2023-02-20T08:25:16.076Z,10.90
2023-02-20T08:27:49.536Z,11.10
2023-02-20T08:30:27.255Z,11.10
2023-02-20T08:32:55.398Z,10.80
2023-02-20T08:35:24.994Z,10.60
2023-02-20T08:37:51.951Z,10.70
2023-02-20T08:40:19.117Z,10.90
2023-02-20T08:42:49.980Z,10.70
2023-02-20T08:45:16.925Z,10.50
2023-02-20T08:47:43.714Z,11.00
2023-02-20T08:50:10.673Z,10.60
2023-02-20T08:52:37.465Z,10.40
2023-02-20T08:55:04.529Z,10.60
2023-02-20T08:57:31.331Z,11.00
2023-02-20T08:59:58.093Z,10.80
2023-02-20T09:02:28.668Z,11.50
2023-02-20T09:04:56.639Z,11.30
2023-02-20T09:07:24.480Z,10.90
2023-02-20T09:09:51.578Z,10.90
2023-02-20T09:12:19.260Z,10.80
2023-02-20T09:14:47.075Z,11.00
2023-02-20T09:17:14.040Z,11.90
2023-02-20T09:19:40.940Z,11.80
2023-02-20T09:22:07.751Z,11.60
2023-02-20T09:24:34.685Z,11.10
2023-02-20T09:27:08.829Z,11.10
2023-02-20T09:29:40.839Z,11.70
2023-02-20T09:32:07.709Z,11.90
2023-02-20T09:34:35.040Z,11.60
2023-02-20T09:37:02.090Z,11.90
2023-02-20T09:39:29.193Z,11.30
2023-02-20T09:42:04.483Z,11.20
2023-02-20T09:45:10.136Z,11.30
2023-02-20T09:47:58.702Z,11.60
2023-02-20T09:50:43.939Z,11.30
2023-02-20T09:53:22.504Z,11.70
2023-02-20T09:55:51.032Z,11.50
2023-02-20T09:58:44.545Z,11.70
2023-02-20T10:01:19.564Z,12.50
2023-02-20T10:03:56.238Z,13.00
2023-02-20T10:06:28.017Z,13.10
2023-02-20T10:08:55.572Z,12.70
2023-02-20T10:11:46.505Z,12.20
2023-02-20T10:14:54.237Z,12.50
2023-02-20T10:17:44.879Z,12.50
2023-02-20T10:20:14.074Z,12.90
2023-02-20T10:22:51.232Z,12.30
2023-02-20T10:25:42.058Z,12.40
2023-02-20T10:28:16.419Z,12.30
2023-02-20T10:30:50.770Z,12.20
2023-02-20T10:33:33.599Z,12.10
2023-02-20T10:36:20.836Z,12.90
2023-02-20T10:38:54.426Z,12.30
2023-02-20T10:41:59.922Z,12.70
2023-02-20T10:44:30.956Z,12.60
2023-02-20T10:47:24.333Z,12.60
2023-02-20T10:50:12.154Z,13.00
2023-02-20T10:52:56.895Z,13.10
2023-02-20T10:55:44.263Z,12.90
2023-02-20T10:58:29.425Z,13.20
2023-02-20T11:01:01.714Z,12.90
2023-02-20T11:03:35.832Z,13.70
2023-02-20T11:06:04.606Z,14.00
2023-02-20T11:08:31.415Z,14.90
2023-02-20T11:11:15.840Z,15.00
2023-02-20T11:13:42.596Z,14.90
2023-02-20T11:16:21.016Z,15.90
2023-02-20T11:18:49.108Z,15.70
2023-02-20T11:21:47.084Z,15.50
2023-02-20T11:24:27.205Z,15.20
2023-02-20T11:27:09.065Z,16.20
2023-02-20T11:29:56.326Z,17.10
2023-02-20T11:32:27.929Z,16.70
2023-02-20T11:35:17.935Z,16.40
2023-02-20T11:37:55.658Z,16.40
2023-02-20T11:40:34.985Z,16.10
2023-02-20T11:43:36.964Z,16.90
2023-02-20T11:46:21.851Z,16.70
2023-02-20T11:49:08.663Z,18.10
2023-02-20T11:51:48.378Z,18.20
2023-02-20T11:54:21.307Z,17.90
2023-02-20T11:57:18.929Z,18.80
2023-02-20T11:59:48.567Z,18.70
2023-02-20T12:02:21.695Z,17.60
2023-02-20T12:05:08.582Z,18.70
2023-02-20T12:07:54.150Z,19.60
2023-02-20T12:10:43.671Z,18.90
2023-02-20T12:13:16.487Z,18.70
2023-02-20T12:15:47.833Z,19.00
2023-02-20T12:18:53.464Z,17.10
2023-02-20T12:21:27.243Z,17.60
2023-02-20T12:24:05.997Z,18.10
2023-02-20T12:26:58.274Z,17.10
2023-02-20T12:30:21.006Z,17.20
2023-02-20T12:33:29.912Z,16.60
2023-02-20T12:36:11.012Z,17.50
2023-02-20T12:38:44.665Z,17.70
2023-02-20T12:41:29.808Z,17.00
2023-02-20T12:44:13.318Z,17.00
2023-02-20T12:47:02.038Z,16.60
2023-02-20T12:49:51.280Z,17.10
2023-02-20T12:52:55.941Z,16.70
2023-02-20T12:55:49.621Z,16.40
2023-02-20T12:58:38.333Z,17.00
2023-02-20T13:01:12.088Z,17.40
2023-02-20T13:03:50.246Z,17.80
2023-02-20T13:06:30.943Z,17.00
2023-02-20T13:09:03.894Z,18.50
2023-02-20T13:11:35.914Z,18.80
2023-02-20T13:14:15.072Z,18.40
2023-02-20T13:17:09.939Z,19.30
2023-02-20T13:19:55.150Z,20.50
2023-02-20T13:22:22.494Z,20.30
2023-02-20T13:24:49.671Z,20.00
2023-02-20T13:27:32.658Z,19.80
2023-02-20T13:30:23.302Z,19.70
2023-02-20T13:33:23.134Z,19.70
2023-02-20T13:35:55.167Z,19.50
2023-02-20T13:38:24.985Z,19.70
2023-02-20T13:41:00.803Z,20.30
2023-02-20T13:43:33.945Z,20.80
2023-02-20T13:46:01.190Z,20.80
2023-02-20T13:48:31.487Z,21.30
2023-02-20T13:51:25.400Z,20.80
2023-02-20T13:54:10.839Z,20.40
2023-02-20T13:56:56.493Z,19.90
2023-02-20T13:59:23.887Z,21.10
2023-02-20T14:01:55.038Z,20.80
2023-02-20T14:04:23.577Z,21.60
2023-02-20T14:06:58.470Z,21.10
2023-02-20T14:09:31.466Z,21.00
2023-02-20T14:12:17.124Z,21.20
2023-02-20T14:14:45.799Z,20.80
2023-02-20T14:17:21.105Z,20.90
2023-02-20T14:20:13.457Z,21.10
2023-02-20T14:22:41.543Z,21.40
2023-02-20T14:25:19.330Z,21.80
2023-02-20T14:27:49.361Z,21.80
2023-02-20T14:30:21.541Z,22.30
2023-02-20T14:32:51.525Z,22.30
2023-02-20T14:35:54.065Z,22.80
2023-02-20T14:38:27.088Z,22.80
2023-02-20T14:40:54.295Z,22.40
2023-02-20T14:43:23.802Z,22.20
2023-02-20T14:46:08.403Z,23.10
2023-02-20T14:48:40.930Z,23.10
2023-02-20T14:51:18.402Z,22.50
2023-02-20T14:53:46.124Z,21.90
2023-02-20T14:56:17.252Z,22.30
2023-02-20T14:58:47.655Z,22.30
2023-02-20T15:01:17.542Z,21.50
2023-02-20T15:03:57.429Z,21.20
2023-02-20T15:06:26.380Z,21.70
2023-02-20T15:08:58.613Z,21.90
2023-02-20T15:11:26.556Z,21.80
2023-02-20T15:13:54.136Z,21.90
2023-02-20T15:16:30.119Z,20.70
2023-02-20T15:18:57.533Z,20.70
2023-02-20T15:21:43.314Z,20.60
2023-02-20T15:24:25.742Z,21.50
2023-02-20T15:26:52.967Z,21.20
2023-02-20T15:29:24.502Z,20.70
2023-02-20T15:32:00.463Z,20.50
2023-02-20T15:34:36.440Z,20.80
2023-02-20T15:37:33.621Z,21.20
2023-02-20T15:40:27.544Z,21.80
2023-02-20T15:42:58.203Z,22.40
2023-02-20T15:45:27.734Z,21.30
2023-02-20T15:47:55.783Z,21.50
2023-02-20T15:50:23.214Z,21.80
2023-02-20T15:52:50.811Z,21.70
2023-02-20T15:55:20.395Z,21.60
2023-02-20T15:57:48.546Z,21.50
2023-02-20T16:00:27.592Z,21.20
2023-02-20T16:02:55.219Z,21.40
2023-02-20T16:05:22.577Z,21.40
2023-02-20T16:07:49.813Z,21.70
2023-02-20T16:10:20.147Z,21.20
2023-02-20T16:12:48.059Z,21.20
2023-02-20T16:15:18.113Z,21.10
2023-02-20T16:17:45.451Z,21.00
2023-02-20T16:20:31.271Z,20.80
2023-02-20T16:22:58.524Z,20.80
2023-02-20T16:25:25.912Z,20.50
2023-02-20T16:27:55.926Z,20.40
2023-02-20T16:30:38.798Z,20.20
2023-02-20T16:33:20.391Z,20.40
2023-02-20T16:35:48.941Z,20.10
2023-02-20T16:38:16.245Z,19.60
2023-02-20T16:40:43.544Z,19.30
2023-02-20T16:43:13.928Z,18.90
2023-02-20T16:45:44.349Z,18.40
2023-02-20T16:48:17.771Z,18.10
2023-02-20T16:50:48.698Z,17.50
2023-02-20T16:53:15.915Z,17.10
2023-02-20T16:55:44.255Z,16.70
2023-02-20T16:58:11.754Z,16.30
2023-02-20T17:00:47.796Z,16.00
2023-02-20T17:03:24.007Z,15.70
2023-02-20T17:05:58.280Z,15.50
2023-02-20T17:08:26.360Z,15.50
2023-02-20T17:10:53.606Z,15.40
2023-02-20T17:13:20.969Z,15.30
2023-02-20T17:15:48.265Z,14.90
2023-02-20T17:18:15.754Z,14.90
2023-02-20T17:20:42.992Z,14.70
2023-02-20T17:23:10.206Z,14.60
2023-02-20T17:25:37.358Z,14.40
2023-02-20T17:28:05.631Z,14.20
2023-02-20T17:30:32.998Z,14.00
2023-02-20T17:33:01.270Z,14.00
2023-02-20T17:35:28.975Z,13.90
2023-02-20T17:37:56.163Z,14.00
2023-02-20T17:40:23.497Z,13.70
2023-02-20T17:42:50.820Z,13.70
2023-02-20T17:45:18.132Z,13.60
2023-02-20T17:47:45.319Z,13.50
2023-02-20T17:50:12.483Z,13.30
2023-02-20T17:52:39.711Z,13.30
2023-02-20T17:55:08.080Z,13.10
2023-02-20T17:57:36.056Z,13.00
2023-02-20T18:00:06.801Z,13.00
2023-02-20T18:02:34.006Z,12.90
2023-02-20T18:05:01.218Z,12.70
2023-02-20T18:07:28.415Z,12.60
2023-02-20T18:09:57.086Z,12.60
2023-02-20T18:12:24.943Z,12.60
2023-02-20T18:14:53.146Z,12.80
2023-02-20T18:17:20.687Z,13.00
2023-02-20T18:19:47.880Z,13.00
2023-02-20T18:22:15.631Z,12.90
2023-02-20T18:24:42.947Z,13.10
2023-02-20T18:27:12.948Z,13.30
2023-02-20T18:29:40.105Z,13.00
2023-02-20T18:32:09.120Z,13.10
2023-02-20T18:34:36.356Z,12.80
2023-02-20T18:37:03.559Z,13.00
2023-02-20T18:39:30.753Z,13.10
2023-02-20T18:41:58.152Z,13.20
2023-02-20T18:44:25.219Z,13.10
2023-02-20T18:46:52.115Z,12.90
2023-02-20T18:49:18.926Z,12.70
2023-02-20T18:51:45.744Z,12.80
2023-02-20T18:54:20.639Z,12.80
2023-02-20T18:56:49.934Z,12.70
2023-02-20T18:59:17.977Z,12.70
2023-02-20T19:01:45.782Z,12.60
2023-02-20T19:04:14.653Z,12.80
2023-02-20T19:06:43.956Z,13.10
2023-02-20T19:09:20.071Z,13.00
2023-02-20T19:11:55.815Z,13.10
2023-02-20T19:14:25.334Z,13.10
2023-02-20T19:16:56.276Z,13.00
2023-02-20T19:19:27.277Z,13.20
2023-02-20T19:21:55.106Z,13.20
2023-02-20T19:24:22.691Z,13.30
2023-02-20T19:26:50.163Z,13.40
2023-02-20T19:29:17.200Z,13.30
2023-02-20T19:31:44.101Z,13.10
2023-02-20T19:34:11.045Z,13.40
2023-02-20T19:36:41.750Z,13.30
2023-02-20T19:39:09.671Z,13.00
2023-02-20T19:41:38.077Z,12.70
2023-02-20T19:44:05.984Z,12.60
2023-02-20T19:46:32.870Z,12.60
2023-02-20T19:48:59.748Z,12.50
2023-02-20T19:51:26.704Z,12.60
2023-02-20T19:53:53.619Z,12.50
2023-02-20T19:56:20.455Z,12.30
2023-02-20T19:58:47.323Z,12.30
2023-02-20T20:01:17.481Z,12.20
2023-02-20T20:03:48.461Z,12.30
2023-02-20T20:06:18.071Z,12.40
2023-02-20T20:09:09.272Z,12.50
2023-02-20T20:11:32.289Z,12.50
2023-02-20T20:13:59.192Z,12.60
2023-02-20T20:16:26.059Z,12.90
2023-02-20T20:18:53.317Z,12.60
2023-02-20T20:21:20.951Z,12.60
2023-02-20T20:23:47.811Z,12.60
2023-02-20T20:26:14.906Z,12.50
2023-02-20T20:28:41.909Z,12.50
2023-02-20T20:31:08.711Z,12.30
2023-02-20T20:33:35.494Z,12.20
2023-02-20T20:36:02.293Z,12.20
2023-02-20T20:38:29.083Z,12.40
2023-02-20T20:40:56.278Z,12.20
2023-02-20T20:43:23.109Z,12.10
2023-02-20T20:45:49.950Z,12.30
2023-02-20T20:48:16.869Z,12.40
2023-02-20T20:50:43.623Z,12.30
2023-02-20T20:53:10.432Z,12.30
2023-02-20T20:55:38.080Z,12.40
2023-02-20T20:58:05.349Z,12.20
2023-02-20T21:00:34.957Z,12.30
2023-02-20T21:03:04.511Z,12.30
2023-02-20T21:05:33.653Z,12.20
2023-02-20T21:08:01.355Z,12.40
2023-02-20T21:10:28.238Z,12.50
2023-02-20T21:12:58.084Z,12.50
2023-02-20T21:15:25.486Z,12.70
2023-02-20T21:17:53.481Z,12.60
2023-02-20T21:20:26.371Z,12.80
2023-02-20T21:22:53.817Z,12.90
2023-02-20T21:25:25.094Z,12.80
2023-02-20T21:27:53.612Z,12.70
2023-02-20T21:30:22.964Z,12.70
2023-02-20T21:32:50.135Z,12.80
2023-02-20T21:35:20.565Z,12.90
2023-02-20T21:37:47.991Z,12.80
2023-02-20T21:40:17.264Z,12.80
2023-02-20T21:43:02.322Z,12.40
2023-02-20T21:45:29.084Z,12.10
2023-02-20T21:47:55.850Z,12.10
2023-02-20T21:50:22.666Z,12.00
2023-02-20T21:52:49.704Z,12.10
2023-02-20T21:55:18.774Z,12.30
2023-02-20T21:57:45.992Z,12.20
2023-02-20T22:00:14.626Z,12.20
2023-02-20T22:02:41.678Z,12.20
2023-02-20T22:05:09.832Z,12.00
2023-02-20T22:07:55.389Z,12.10
2023-02-20T22:10:40.660Z,12.00
2023-02-20T22:13:25.964Z,12.00
2023-02-20T22:16:11.352Z,11.80
2023-02-20T22:18:56.475Z,11.70
2023-02-20T22:21:43.886Z,11.70
2023-02-20T22:24:37.792Z,12.00
2023-02-20T22:27:27.073Z,11.90
2023-02-20T22:30:13.400Z,11.90
2023-02-20T22:32:58.816Z,11.90
2023-02-20T22:35:44.068Z,11.70
2023-02-20T22:38:29.137Z,11.90
2023-02-20T22:41:14.858Z,11.70
2023-02-20T22:44:00.161Z,11.60
2023-02-20T22:46:45.281Z,11.60
2023-02-20T22:49:30.578Z,11.50
2023-02-20T22:52:16.084Z,11.70
2023-02-20T22:55:05.634Z,11.80
2023-02-20T22:57:51.884Z,11.30
2023-02-20T23:00:37.548Z,11.30
2023-02-20T23:03:22.814Z,11.60
2023-02-20T23:06:17.649Z,11.90
2023-02-20T23:09:05.430Z,11.90
2023-02-20T23:11:53.551Z,12.00
2023-02-20T23:14:38.895Z,11.90
2023-02-20T23:17:34.924Z,12.10
2023-02-20T23:20:24.524Z,12.20
2023-02-20T23:23:09.834Z,12.30
2023-02-20T23:25:55.324Z,12.00
2023-02-20T23:28:40.481Z,12.00
2023-02-20T23:31:26.710Z,11.80
2023-02-20T23:34:11.791Z,11.90
2023-02-20T23:36:57.649Z,12.00
2023-02-20T23:39:43.013Z,12.10
2023-02-20T23:42:28.364Z,12.00
2023-02-20T23:45:13.723Z,11.70
2023-02-20T23:47:59.608Z,11.50
2023-02-20T23:50:44.894Z,11.50
2023-02-20T23:53:30.108Z,11.40
2023-02-20T23:56:15.442Z,11.30
2023-02-20T23:59:00.869Z,11.40
